Time;durP1;ratioP1;P1;durP2;ratioP2;P2;SDS_P1;SDS_P2;PMS_P1;PMS_P2;Temp;Humidity;BMP_temperature;BMP_pressure;BME280_temperature;BME280_humidity;BME280_pressure;Samples;Min_cycle;Max_cycle;Signal;HPM_P1;HPM_P2
2023/12/27 00:00:04;;;;;;;0.50;0.40;;;6.40;99.90;;;;;;5016446;28;20216;-80
2023/12/27 00:02:31;;;;;;;0.50;0.40;;;6.30;99.90;;;;;;5016622;28;20196;-79
2023/12/27 00:04:58;;;;;;;4.53;1.30;;;6.30;99.90;;;;;;5016743;28;20217;-79
2023/12/27 00:07:25;;;;;;;0.50;0.40;;;6.30;99.90;;;;;;5016288;28;20203;-79
2023/12/27 00:09:51;;;;;;;0.50;0.40;;;6.20;99.90;;;;;;5016761;28;20223;-79
2023/12/27 00:12:18;;;;;;;0.50;0.40;;;6.20;99.90;;;;;;5017092;28;20211;-80
2023/12/27 00:14:46;;;;;;;0.50;0.40;;;6.20;99.90;;;;;;5016706;28;20303;-80
2023/12/27 00:17:13;;;;;;;0.50;0.40;;;6.10;99.90;;;;;;5017703;28;20223;-79
2023/12/27 00:19:40;;;;;;;0.50;0.40;;;6.10;99.90;;;;;;5025740;28;20192;-78
2023/12/27 00:22:06;;;;;;;0.50;0.40;;;6.10;99.90;;;;;;5036813;28;20187;-79
2023/12/27 00:24:35;;;;;;;1.08;1.08;;;6.10;99.90;;;;;;5037054;28;20226;-79
2023/12/27 00:27:02;;;;;;;0.50;0.40;;;6.10;99.90;;;;;;5009268;28;20470;-78
2023/12/27 00:29:31;;;;;;;0.50;0.40;;;6.10;99.90;;;;;;5016778;28;20196;-79
2023/12/27 00:31:59;;;;;;;0.50;0.50;;;6.10;99.90;;;;;;5017380;28;20196;-79
2023/12/27 00:34:26;;;;;;;0.50;0.40;;;6.00;99.90;;;;;;5017205;28;20193;-79
2023/12/27 00:36:52;;;;;;;0.60;0.60;;;5.90;99.90;;;;;;5017192;28;20200;-78
2023/12/27 00:39:23;;;;;;;0.50;0.40;;;5.90;99.90;;;;;;5017474;28;20569;-79
2023/12/27 00:41:50;;;;;;;0.50;0.40;;;5.80;99.90;;;;;;5017418;28;20231;-79
2023/12/27 00:44:17;;;;;;;0.50;0.40;;;5.80;99.90;;;;;;5017062;28;20216;-79
2023/12/27 00:46:43;;;;;;;0.70;0.52;;;5.70;99.90;;;;;;5016335;28;20211;-80
2023/12/27 00:49:12;;;;;;;0.50;0.40;;;5.60;99.90;;;;;;5017956;28;20192;-79
2023/12/27 00:51:39;;;;;;;0.50;0.40;;;5.60;99.90;;;;;;5017533;28;20224;-79
2023/12/27 00:54:05;;;;;;;1.25;0.85;;;5.60;99.90;;;;;;5017144;28;20196;-79
2023/12/27 00:56:32;;;;;;;0.57;0.55;;;5.60;99.90;;;;;;5017568;28;20193;-78
2023/12/27 00:58:59;;;;;;;0.50;0.40;;;5.50;99.90;;;;;;5018017;28;20250;-78
2023/12/27 01:01:26;;;;;;;0.50;0.40;;;5.50;99.90;;;;;;5018012;28;20212;-79
2023/12/27 01:03:53;;;;;;;0.50;0.40;;;5.50;99.90;;;;;;5017222;28;20216;-79
2023/12/27 01:06:21;;;;;;;0.50;0.40;;;5.50;99.90;;;;;;5022472;28;20298;-78
2023/12/27 01:08:48;;;;;;;0.50;0.40;;;5.40;99.90;;;;;;5037116;28;20192;-78
2023/12/27 01:11:15;;;;;;;0.50;0.40;;;5.30;99.90;;;;;;5037892;28;20216;-79
2023/12/27 01:13:42;;;;;;;0.50;0.40;;;5.30;99.90;;;;;;5036760;28;20637;-79
2023/12/27 01:16:09;;;;;;;0.50;0.40;;;5.30;99.90;;;;;;5036795;28;20196;-78
2023/12/27 01:18:36;;;;;;;0.50;0.40;;;5.20;99.90;;;;;;5036935;28;20195;-78
2023/12/27 01:21:03;;;;;;;2.15;2.05;;;5.20;99.90;;;;;;5037323;28;20215;-77
2023/12/27 01:23:32;;;;;;;1.48;1.00;;;5.20;99.90;;;;;;5037547;28;20187;-77
2023/12/27 01:25:59;;;;;;;0.50;0.40;;;5.20;99.90;;;;;;5036288;28;20203;-79
2023/12/27 01:28:26;;;;;;;1.45;0.75;;;5.20;99.90;;;;;;5022647;28;20197;-79
2023/12/27 01:30:53;;;;;;;0.50;0.40;;;5.20;99.90;;;;;;5027251;28;20227;-79
2023/12/27 01:33:19;;;;;;;0.43;0.40;;;5.10;99.90;;;;;;5036500;28;20568;-78
2023/12/27 01:35:46;;;;;;;0.40;0.40;;;5.10;99.90;;;;;;5036930;28;20199;-78
2023/12/27 01:38:13;;;;;;;2.00;1.40;;;5.10;99.90;;;;;;5037017;28;20196;-79
2023/12/27 01:40:48;;;;;;;0.40;0.40;;;5.10;99.90;;;;;;5037440;28;20218;-78
2023/12/27 01:43:14;;;;;;;1.35;1.25;;;5.00;99.90;;;;;;5036730;28;20202;-78
2023/12/27 01:45:41;;;;;;;0.40;0.40;;;5.00;99.90;;;;;;5037197;28;20235;-79
2023/12/27 01:48:08;;;;;;;0.40;0.40;;;5.00;99.90;;;;;;5036906;28;20202;-78
2023/12/27 01:50:35;;;;;;;0.40;0.40;;;5.00;99.90;;;;;;5036607;28;20219;-79
2023/12/27 01:53:02;;;;;;;0.43;0.40;;;5.00;99.90;;;;;;5037032;28;20192;-79
2023/12/27 01:55:29;;;;;;;0.50;0.50;;;5.00;99.90;;;;;;5037563;28;20192;-78
2023/12/27 01:57:57;;;;;;;0.93;0.70;;;5.00;99.90;;;;;;5039938;28;20207;-79
2023/12/27 02:00:24;;;;;;;0.40;0.40;;;5.00;99.90;;;;;;5040727;28;20321;-78
2023/12/27 02:02:51;;;;;;;0.40;0.40;;;5.00;99.90;;;;;;5040534;28;20202;-79
2023/12/27 02:05:18;;;;;;;7.95;3.80;;;5.00;99.90;;;;;;5040573;28;20298;-79
2023/12/27 02:07:44;;;;;;;0.40;0.30;;;5.00;99.90;;;;;;5040635;28;20192;-78
2023/12/27 02:10:11;;;;;;;0.40;0.40;;;5.00;99.90;;;;;;5040711;28;20237;-78
2023/12/27 02:12:38;;;;;;;0.40;0.40;;;5.00;99.90;;;;;;5041652;28;20207;-78
2023/12/27 02:15:07;;;;;;;0.40;0.40;;;5.00;99.90;;;;;;5041046;28;20627;-78
2023/12/27 02:17:34;;;;;;;0.40;0.40;;;4.90;99.90;;;;;;5025997;28;20240;-77
2023/12/27 02:20:02;;;;;;;0.40;0.40;;;5.00;99.90;;;;;;5022777;28;20318;-78
2023/12/27 02:22:31;;;;;;;0.40;0.40;;;5.00;99.90;;;;;;5040975;28;20208;-77
2023/12/27 02:24:59;;;;;;;0.40;0.40;;;4.90;99.90;;;;;;5022682;28;20217;-78
2023/12/27 02:27:26;;;;;;;0.40;0.30;;;5.00;99.90;;;;;;5020890;28;20197;-79
2023/12/27 02:29:53;;;;;;;1.25;0.45;;;5.00;99.90;;;;;;5020050;28;20223;-78
2023/12/27 02:32:20;;;;;;;5.05;2.78;;;5.00;99.90;;;;;;5020796;28;20572;-80
2023/12/27 02:34:46;;;;;;;1.25;1.25;;;5.00;99.90;;;;;;5022054;28;20193;-79
2023/12/27 02:37:13;;;;;;;0.80;0.80;;;5.00;99.90;;;;;;5021231;28;20206;-78
2023/12/27 02:39:40;;;;;;;0.77;0.77;;;5.00;99.90;;;;;;5028137;28;20196;-78
2023/12/27 02:42:08;;;;;;;1.05;0.85;;;5.00;99.90;;;;;;5040452;28;20683;-78
2023/12/27 02:44:35;;;;;;;0.40;0.40;;;5.00;99.90;;;;;;5041752;28;20589;-79
2023/12/27 02:47:02;;;;;;;1.55;1.48;;;4.90;99.90;;;;;;5040675;28;20200;-78
2023/12/27 02:49:29;;;;;;;0.60;0.50;;;4.90;99.90;;;;;;5041314;28;20192;-79
2023/12/27 02:51:55;;;;;;;0.40;0.40;;;5.00;99.90;;;;;;5040280;28;20199;-78
2023/12/27 02:54:22;;;;;;;0.40;0.40;;;4.90;99.90;;;;;;5036304;28;20192;-79
2023/12/27 02:56:49;;;;;;;0.40;0.40;;;4.90;99.90;;;;;;5020291;28;20204;-78
2023/12/27 02:59:17;;;;;;;0.60;0.60;;;4.80;99.90;;;;;;5013176;28;20193;-79
2023/12/27 03:01:44;;;;;;;0.68;0.65;;;4.80;99.90;;;;;;5020823;28;20234;-78
2023/12/27 03:04:10;;;;;;;9.38;1.38;;;4.80;99.90;;;;;;5020564;28;20204;-78
2023/12/27 03:06:37;;;;;;;0.50;0.50;;;4.80;99.90;;;;;;5034782;28;20195;-80
2023/12/27 03:09:04;;;;;;;2.55;2.45;;;4.80;99.90;;;;;;5029870;28;20207;-78
2023/12/27 03:11:31;;;;;;;0.40;0.40;;;4.80;99.90;;;;;;5020348;28;20223;-79
2023/12/27 03:13:58;;;;;;;0.40;0.40;;;4.80;99.90;;;;;;5029265;28;20206;-79
2023/12/27 03:16:27;;;;;;;0.60;0.60;;;4.80;99.90;;;;;;5040226;28;20192;-79
2023/12/27 03:18:54;;;;;;;2.65;2.58;;;4.80;99.90;;;;;;5023372;28;20211;-78
2023/12/27 03:21:21;;;;;;;2.72;2.63;;;4.80;99.90;;;;;;5020503;28;20212;-78
2023/12/27 03:23:48;;;;;;;0.40;0.30;;;4.80;99.90;;;;;;5020458;28;20646;-78
2023/12/27 03:26:15;;;;;;;0.40;0.40;;;4.70;99.90;;;;;;5020303;28;20216;-78
2023/12/27 03:28:42;;;;;;;6.82;0.77;;;4.70;99.90;;;;;;5019930;28;20200;-78
2023/12/27 03:31:08;;;;;;;0.40;0.40;;;4.60;99.90;;;;;;5019661;28;20212;-79
2023/12/27 03:33:37;;;;;;;0.60;0.60;;;4.60;99.90;;;;;;5020411;28;20189;-78
2023/12/27 03:36:04;;;;;;;0.45;0.45;;;4.60;99.90;;;;;;5019938;28;20204;-79
2023/12/27 03:38:30;;;;;;;0.40;0.38;;;4.60;99.90;;;;;;5019808;28;20203;-78
2023/12/27 03:40:57;;;;;;;0.40;0.40;;;4.60;99.90;;;;;;5020035;28;20220;-79
2023/12/27 03:43:24;;;;;;;0.40;0.40;;;4.60;99.90;;;;;;5020058;28;20199;-80
2023/12/27 03:45:54;;;;;;;0.40;0.30;;;4.60;99.90;;;;;;5020049;28;20564;-79
2023/12/27 03:48:20;;;;;;;0.80;0.77;;;4.60;99.90;;;;;;5031046;28;20203;-80
2023/12/27 03:50:48;;;;;;;0.40;0.40;;;4.60;99.90;;;;;;5039054;28;20223;-78
2023/12/27 03:53:15;;;;;;;0.40;0.40;;;4.60;99.90;;;;;;5039928;28;20202;-78
2023/12/27 03:55:43;;;;;;;0.40;0.30;;;4.60;99.90;;;;;;5033155;28;20199;-78
2023/12/27 03:58:10;;;;;;;0.40;0.40;;;4.60;99.90;;;;;;5020901;28;20199;-79
2023/12/27 04:00:37;;;;;;;0.40;0.30;;;4.60;99.90;;;;;;5019371;28;20219;-79
2023/12/27 04:03:04;;;;;;;0.40;0.40;;;4.70;99.90;;;;;;5028530;28;20211;-79
2023/12/27 04:05:31;;;;;;;0.40;0.40;;;4.70;99.90;;;;;;5033916;28;20209;-78
2023/12/27 04:07:59;;;;;;;0.40;0.30;;;4.60;99.90;;;;;;5035324;28;20204;-78
2023/12/27 04:10:31;;;;;;;0.40;0.30;;;4.60;99.90;;;;;;5025834;28;20212;-78
2023/12/27 04:12:57;;;;;;;2.20;2.17;;;4.60;99.90;;;;;;5019325;28;20680;-80
2023/12/27 04:15:24;;;;;;;0.40;0.40;;;4.60;99.90;;;;;;5026967;28;20193;-78
2023/12/27 04:17:51;;;;;;;0.40;0.40;;;4.60;99.90;;;;;;5026476;28;20206;-79
2023/12/27 04:20:17;;;;;;;0.40;0.30;;;4.50;99.90;;;;;;5038322;28;20251;-79
2023/12/27 04:22:44;;;;;;;0.40;0.30;;;4.50;99.90;;;;;;5038591;28;20586;-79
2023/12/27 04:25:12;;;;;;;0.40;0.40;;;4.60;99.90;;;;;;5038457;28;20218;-78
2023/12/27 04:27:39;;;;;;;0.90;0.90;;;4.60;99.90;;;;;;5026756;28;20283;-79
2023/12/27 04:30:07;;;;;;;0.40;0.30;;;4.60;99.90;;;;;;5018419;28;20220;-78
2023/12/27 04:32:33;;;;;;;0.40;0.30;;;4.60;99.90;;;;;;5018399;28;20192;-79
2023/12/27 04:35:00;;;;;;;0.40;0.30;;;4.70;99.90;;;;;;5017754;28;20196;-78
2023/12/27 04:37:27;;;;;;;0.40;0.40;;;4.70;99.90;;;;;;5017384;28;20196;-81
2023/12/27 04:39:54;;;;;;;0.40;0.40;;;4.70;99.90;;;;;;5018294;28;20228;-80
2023/12/27 04:42:22;;;;;;;0.40;0.40;;;4.70;99.90;;;;;;5019095;28;20199;-78
2023/12/27 04:44:49;;;;;;;0.40;0.30;;;4.70;99.90;;;;;;5019314;28;20196;-79
2023/12/27 04:47:15;;;;;;;0.40;0.30;;;4.70;99.90;;;;;;5013925;28;20196;-79
2023/12/27 04:49:42;;;;;;;0.40;0.40;;;4.70;99.90;;;;;;5013920;28;20680;-79
2023/12/27 04:52:09;;;;;;;0.40;0.40;;;4.70;99.90;;;;;;5014610;28;20200;-79
2023/12/27 04:54:35;;;;;;;0.77;0.60;;;4.80;99.90;;;;;;5014038;28;20193;-79
2023/12/27 04:57:02;;;;;;;0.40;0.30;;;4.80;99.90;;;;;;5031475;28;20570;-78
2023/12/27 04:59:31;;;;;;;0.40;0.40;;;4.80;99.90;;;;;;5033428;28;20199;-78
2023/12/27 05:01:57;;;;;;;0.40;0.30;;;4.80;99.90;;;;;;5033912;28;20196;-78
2023/12/27 05:04:24;;;;;;;0.40;0.30;;;4.80;99.90;;;;;;5033443;28;20199;-79
2023/12/27 05:06:51;;;;;;;0.40;0.30;;;4.80;99.90;;;;;;5033368;28;21042;-78
2023/12/27 05:09:18;;;;;;;0.40;0.40;;;4.80;99.90;;;;;;5034527;28;20196;-78
2023/12/27 05:11:44;;;;;;;0.40;0.30;;;4.80;99.90;;;;;;5034147;28;20266;-78
2023/12/27 05:14:12;;;;;;;0.40;0.30;;;4.80;99.90;;;;;;5033633;28;20203;-79
2023/12/27 05:16:40;;;;;;;0.40;0.30;;;4.80;99.90;;;;;;5033367;28;20184;-79
2023/12/27 05:19:07;;;;;;;0.40;0.40;;;4.80;99.90;;;;;;5034043;28;20199;-78
2023/12/27 05:21:34;;;;;;;0.40;0.30;;;4.90;99.90;;;;;;5033924;28;20216;-79
2023/12/27 05:24:00;;;;;;;0.80;0.80;;;4.90;99.90;;;;;;5033938;28;20200;-78
2023/12/27 05:26:26;;;;;;;0.75;0.75;;;5.00;99.90;;;;;;5033483;28;20220;-80
2023/12/27 05:28:53;;;;;;;0.53;0.53;;;4.90;99.90;;;;;;5033974;28;20199;-79
2023/12/27 05:31:19;;;;;;;0.40;0.40;;;4.90;99.90;;;;;;5033851;28;20216;-79
2023/12/27 05:33:48;;;;;;;0.40;0.30;;;5.00;99.90;;;;;;5028110;28;20218;-79
2023/12/27 05:36:14;;;;;;;0.40;0.40;;;5.00;99.90;;;;;;5013970;28;20679;-78
2023/12/27 05:38:41;;;;;;;0.40;0.40;;;5.00;99.90;;;;;;5013248;28;20211;-79
2023/12/27 05:41:08;;;;;;;0.40;0.40;;;5.00;99.90;;;;;;5013102;28;20212;-78
2023/12/27 05:43:35;;;;;;;0.40;0.30;;;5.00;99.90;;;;;;5011141;28;20702;-79
2023/12/27 05:46:02;;;;;;;0.40;0.40;;;5.10;99.90;;;;;;5011452;28;20216;-79
2023/12/27 05:48:28;;;;;;;1.17;1.15;;;5.00;99.90;;;;;;5015261;28;20197;-80
2023/12/27 05:50:56;;;;;;;0.60;0.60;;;5.10;99.90;;;;;;5014400;28;20228;-80
2023/12/27 05:53:23;;;;;;;0.40;0.40;;;5.10;99.90;;;;;;5014140;28;20188;-80
2023/12/27 05:55:50;;;;;;;0.70;0.70;;;5.10;99.90;;;;;;5013871;28;20219;-80
2023/12/27 05:58:17;;;;;;;0.40;0.40;;;5.10;99.90;;;;;;5014140;28;20648;-80
2023/12/27 06:00:43;;;;;;;0.40;0.40;;;5.10;99.90;;;;;;5013796;28;20220;-79
2023/12/27 06:03:10;;;;;;;0.85;0.73;;;5.10;99.90;;;;;;5013664;28;20193;-80
2023/12/27 06:05:37;;;;;;;0.95;0.85;;;5.10;99.90;;;;;;5014247;28;20239;-80
2023/12/27 06:08:06;;;;;;;2.45;0.82;;;5.20;99.90;;;;;;5014148;28;20201;-79
2023/12/27 06:10:33;;;;;;;0.40;0.40;;;5.20;99.90;;;;;;5014510;28;20208;-79
2023/12/27 06:12:59;;;;;;;0.40;0.40;;;5.20;99.90;;;;;;5014117;28;20203;-79
2023/12/27 06:15:26;;;;;;;0.40;0.30;;;5.30;99.90;;;;;;5013971;28;20196;-79
2023/12/27 06:17:53;;;;;;;0.40;0.40;;;5.30;99.90;;;;;;5013905;28;20576;-79
2023/12/27 06:20:19;;;;;;;0.40;0.40;;;5.40;99.90;;;;;;5014168;28;20223;-79
2023/12/27 06:22:46;;;;;;;0.40;0.40;;;5.40;99.90;;;;;;5014013;28;20199;-78
2023/12/27 06:25:14;;;;;;;0.40;0.40;;;5.50;99.90;;;;;;5010491;28;20207;-78
2023/12/27 06:27:41;;;;;;;0.40;0.30;;;5.60;99.90;;;;;;5012513;28;20193;-79
2023/12/27 06:30:09;;;;;;;0.40;0.40;;;5.60;99.90;;;;;;5030454;28;20223;-79
2023/12/27 06:32:35;;;;;;;0.40;0.40;;;5.70;99.90;;;;;;5005493;28;20200;-79
2023/12/27 06:35:03;;;;;;;0.40;0.40;;;5.70;99.90;;;;;;5012025;28;20200;-78
2023/12/27 06:37:29;;;;;;;0.40;0.40;;;5.80;99.90;;;;;;5014741;28;20215;-79
2023/12/27 06:39:56;;;;;;;0.40;0.30;;;5.80;99.90;;;;;;5031821;28;20706;-79
2023/12/27 06:42:24;;;;;;;0.40;0.30;;;5.80;99.90;;;;;;5031738;28;20196;-79
2023/12/27 06:44:52;;;;;;;0.40;0.30;;;5.90;99.90;;;;;;5028933;28;20197;-79
2023/12/27 06:47:19;;;;;;;1.95;1.85;;;6.00;99.90;;;;;;5025478;28;20302;-81
2023/12/27 06:49:47;;;;;;;0.40;0.40;;;6.00;99.90;;;;;;5036167;28;20232;-80
2023/12/27 06:52:14;;;;;;;0.85;0.85;;;6.00;99.90;;;;;;5036258;28;20234;-78
2023/12/27 06:54:41;;;;;;;0.40;0.40;;;6.00;99.90;;;;;;5037267;28;20207;-80
2023/12/27 06:57:07;;;;;;;1.23;1.13;;;6.10;99.90;;;;;;5036844;28;20198;-79
2023/12/27 06:59:35;;;;;;;0.82;0.82;;;6.10;99.90;;;;;;5037257;28;20660;-78
2023/12/27 07:02:04;;;;;;;0.40;0.40;;;6.10;99.90;;;;;;5037247;28;20570;-78
2023/12/27 07:04:31;;;;;;;0.40;0.40;;;6.20;99.90;;;;;;5036584;28;20673;-80
2023/12/27 07:06:58;;;;;;;7.40;1.42;;;6.20;99.90;;;;;;5037162;28;20219;-79
2023/12/27 07:09:24;;;;;;;0.40;0.30;;;6.30;99.90;;;;;;5037537;28;20199;-78
2023/12/27 07:11:51;;;;;;;0.50;0.50;;;6.30;99.90;;;;;;5037281;28;20576;-79
2023/12/27 07:14:19;;;;;;;0.40;0.40;;;6.30;99.90;;;;;;5037743;28;20200;-78
2023/12/27 07:16:47;;;;;;;0.40;0.40;;;6.30;99.90;;;;;;5037513;28;20295;-77
2023/12/27 07:19:14;;;;;;;0.40;0.40;;;6.30;99.90;;;;;;5037224;28;20196;-77
2023/12/27 07:21:41;;;;;;;8.30;1.27;;;6.30;99.90;;;;;;5037238;28;20212;-78
2023/12/27 07:24:08;;;;;;;0.40;0.40;;;6.30;99.90;;;;;;5037713;28;20208;-78
2023/12/27 07:26:35;;;;;;;0.50;0.43;;;6.30;99.90;;;;;;5036810;28;20246;-77
2023/12/27 07:29:01;;;;;;;0.40;0.30;;;6.30;99.90;;;;;;5037317;28;20203;-79
2023/12/27 07:31:28;;;;;;;0.40;0.40;;;6.40;99.90;;;;;;5037401;28;20216;-77
2023/12/27 07:33:56;;;;;;;0.40;0.30;;;6.40;99.90;;;;;;5037311;28;20295;-79
2023/12/27 07:36:23;;;;;;;0.40;0.40;;;6.40;99.90;;;;;;5037122;28;20196;-79
2023/12/27 07:38:50;;;;;;;0.40;0.40;;;6.40;99.90;;;;;;5036892;28;20196;-80
2023/12/27 07:41:17;;;;;;;0.40;0.40;;;6.50;99.90;;;;;;5036967;28;20223;-79
2023/12/27 07:43:44;;;;;;;0.40;0.30;;;6.50;99.90;;;;;;5036407;28;20202;-79
2023/12/27 07:46:10;;;;;;;0.40;0.30;;;6.60;99.90;;;;;;5036859;28;20240;-78
2023/12/27 07:48:37;;;;;;;0.40;0.40;;;6.60;99.90;;;;;;5037224;28;20194;-77
2023/12/27 07:51:05;;;;;;;0.40;0.30;;;6.60;99.90;;;;;;5036390;28;20227;-79
2023/12/27 07:53:34;;;;;;;0.40;0.40;;;6.70;99.90;;;;;;5037037;28;20195;-77
2023/12/27 07:56:00;;;;;;;0.40;0.30;;;6.70;99.90;;;;;;5038547;28;20191;-77
2023/12/27 07:58:27;;;;;;;0.40;0.40;;;6.70;99.90;;;;;;5037043;28;20199;-79
2023/12/27 08:00:54;;;;;;;4.55;1.25;;;6.80;99.90;;;;;;5036924;28;20222;-77
2023/12/27 08:03:21;;;;;;;0.50;0.40;;;6.70;99.90;;;;;;5039319;28;20690;-79
2023/12/27 08:05:47;;;;;;;0.40;0.38;;;6.80;99.90;;;;;;5053326;28;20196;-81
2023/12/27 08:08:15;;;;;;;3.60;1.05;;;6.80;99.90;;;;;;5055273;28;20192;-80
2023/12/27 08:10:43;;;;;;;0.40;0.38;;;6.90;99.90;;;;;;5041196;28;20280;-80
2023/12/27 08:13:09;;;;;;;0.40;0.40;;;6.90;99.90;;;;;;5033639;28;20196;-79
2023/12/27 08:15:36;;;;;;;0.45;0.40;;;6.90;99.90;;;;;;5031392;28;20548;-78
2023/12/27 08:18:04;;;;;;;5.88;1.27;;;6.90;99.90;;;;;;5032164;28;20196;-79
2023/12/27 08:20:31;;;;;;;0.40;0.30;;;6.90;99.90;;;;;;5026382;28;20213;-79
2023/12/27 08:22:58;;;;;;;0.40;0.30;;;7.00;99.90;;;;;;5024472;28;20211;-80
2023/12/27 08:25:26;;;;;;;1.52;1.25;;;7.00;99.90;;;;;;5022589;28;20251;-79
2023/12/27 08:27:53;;;;;;;0.50;0.45;;;7.00;99.90;;;;;;5024358;28;20197;-79
2023/12/27 08:30:21;;;;;;;1.30;1.08;;;7.00;99.90;;;;;;5023029;28;20295;-80
2023/12/27 08:32:48;;;;;;;0.50;0.50;;;7.00;99.90;;;;;;5014903;28;20258;-79
2023/12/27 08:35:15;;;;;;;0.50;0.40;;;7.00;99.90;;;;;;5026869;28;20192;-80
2023/12/27 08:37:42;;;;;;;0.98;0.60;;;7.00;99.90;;;;;;5021390;28;20188;-80
2023/12/27 08:40:10;;;;;;;0.82;0.82;;;7.10;99.90;;;;;;5019115;28;20216;-81
2023/12/27 08:42:38;;;;;;;0.90;0.90;;;7.10;99.90;;;;;;5019447;28;20238;-81
2023/12/27 08:45:05;;;;;;;1.67;0.77;;;7.10;99.90;;;;;;5016938;28;20200;-79
2023/12/27 08:47:32;;;;;;;0.40;0.38;;;7.20;99.90;;;;;;5017254;28;20240;-80
2023/12/27 08:49:59;;;;;;;0.50;0.50;;;7.20;99.90;;;;;;5030088;28;20231;-81
2023/12/27 08:52:25;;;;;;;0.65;0.63;;;7.20;99.90;;;;;;5039124;28;20199;-79
2023/12/27 08:54:53;;;;;;;0.55;0.55;;;7.20;99.90;;;;;;5039420;28;20196;-80
2023/12/27 08:57:20;;;;;;;0.40;0.40;;;7.30;99.90;;;;;;5042558;28;20195;-80
2023/12/27 08:59:48;;;;;;;0.52;0.52;;;7.30;99.90;;;;;;5040062;28;20211;-80
2023/12/27 09:02:15;;;;;;;0.45;0.43;;;7.30;99.90;;;;;;5040575;28;20196;-80
2023/12/27 09:04:42;;;;;;;0.68;0.40;;;7.30;99.90;;;;;;5034196;28;20202;-80
2023/12/27 09:07:08;;;;;;;0.55;0.55;;;7.30;99.90;;;;;;5034214;28;20626;-79
2023/12/27 09:09:35;;;;;;;1.60;0.75;;;7.30;99.90;;;;;;5034260;28;20191;-80
2023/12/27 09:12:04;;;;;;;0.40;0.40;;;7.40;99.90;;;;;;5033706;28;20199;-80
2023/12/27 09:14:31;;;;;;;0.40;0.40;;;7.40;99.90;;;;;;5033694;28;20282;-80
2023/12/27 09:16:59;;;;;;;0.43;0.38;;;7.40;99.90;;;;;;5026470;28;20197;-80
2023/12/27 09:19:26;;;;;;;0.98;0.85;;;7.50;99.90;;;;;;5014915;28;20192;-78
2023/12/27 09:21:52;;;;;;;0.73;0.73;;;7.50;99.90;;;;;;5026248;28;20202;-80
2023/12/27 09:24:19;;;;;;;0.50;0.40;;;7.60;99.90;;;;;;5032358;28;20196;-78
2023/12/27 09:26:48;;;;;;;4.10;1.10;;;7.60;99.90;;;;;;5032939;28;20307;-79
2023/12/27 09:29:15;;;;;;;3.70;1.83;;;7.60;99.90;;;;;;5033400;28;20195;-80
2023/12/27 09:31:43;;;;;;;0.60;0.60;;;7.60;99.90;;;;;;5033204;28;20216;-78
2023/12/27 09:34:11;;;;;;;1.05;0.93;;;7.60;99.90;;;;;;5033440;28;20238;-79
2023/12/27 09:36:38;;;;;;;2.67;2.25;;;7.60;99.90;;;;;;5033291;28;20198;-78
2023/12/27 09:39:05;;;;;;;1.75;1.73;;;7.60;99.90;;;;;;5033241;28;20675;-79
2023/12/27 09:41:32;;;;;;;1.23;1.13;;;7.60;99.90;;;;;;5033190;28;20211;-79
2023/12/27 09:43:59;;;;;;;0.40;0.30;;;7.70;99.90;;;;;;5033244;28;20473;-79
2023/12/27 09:46:29;;;;;;;0.40;0.30;;;7.80;99.90;;;;;;5032988;28;20216;-78
2023/12/27 09:48:56;;;;;;;0.80;0.68;;;7.90;99.90;;;;;;5032535;28;20678;-81
2023/12/27 09:51:25;;;;;;;1.15;0.60;;;7.80;99.90;;;;;;5032068;28;20702;-81
2023/12/27 09:53:53;;;;;;;0.50;0.50;;;7.90;99.90;;;;;;5031722;28;20191;-79
2023/12/27 09:56:22;;;;;;;3.15;0.60;;;7.90;99.90;;;;;;5032543;28;20191;-79
2023/12/27 09:58:51;;;;;;;0.50;0.47;;;7.90;99.90;;;;;;5032575;28;20191;-79
2023/12/27 10:01:20;;;;;;;2.45;1.10;;;7.90;99.90;;;;;;5032447;28;20216;-79
2023/12/27 10:03:53;;;;;;;0.80;0.80;;;7.90;99.90;;;;;;5032168;28;20200;-79
2023/12/27 10:06:27;;;;;;;0.40;0.40;;;8.00;99.90;;;;;;5032428;28;20199;-78
2023/12/27 10:08:55;;;;;;;0.60;0.57;;;8.00;99.90;;;;;;5032559;28;20195;-79
2023/12/27 10:11:23;;;;;;;1.35;0.82;;;8.00;99.90;;;;;;5032446;28;20212;-80
2023/12/27 10:13:51;;;;;;;0.40;0.30;;;8.00;99.90;;;;;;5032394;28;20207;-79
2023/12/27 10:16:18;;;;;;;0.60;0.50;;;8.00;99.90;;;;;;5031980;28;20254;-80
2023/12/27 10:18:45;;;;;;;2.78;0.50;;;8.00;99.90;;;;;;5032719;28;20257;-80
2023/12/27 10:21:12;;;;;;;0.40;0.32;;;8.10;99.90;;;;;;5017446;28;20235;-78
2023/12/27 10:23:40;;;;;;;0.40;0.30;;;8.10;99.90;;;;;;5028337;28;20203;-80
2023/12/27 10:26:07;;;;;;;2.78;1.20;;;8.10;99.90;;;;;;5019216;28;20203;-79
2023/12/27 10:28:34;;;;;;;2.15;1.65;;;8.10;99.90;;;;;;5018315;28;20220;-80
2023/12/27 10:31:04;;;;;;;0.60;0.60;;;8.10;99.90;;;;;;5022268;28;20686;-81
2023/12/27 10:33:40;;;;;;;0.40;0.30;;;8.20;99.90;;;;;;5019410;28;20201;-80
2023/12/27 10:36:08;;;;;;;0.70;0.70;;;8.20;99.90;;;;;;5015661;28;20199;-80
2023/12/27 10:38:35;;;;;;;0.68;0.68;;;8.20;99.90;;;;;;5031706;28;20196;-79
2023/12/27 10:41:04;;;;;;;0.77;0.63;;;8.20;99.90;;;;;;5035087;28;20207;-80
2023/12/27 10:43:32;;;;;;;0.40;0.40;;;8.30;99.90;;;;;;5035043;28;20238;-80
2023/12/27 10:45:59;;;;;;;1.95;1.85;;;8.30;99.90;;;;;;5034867;28;20194;-79
2023/12/27 10:48:27;;;;;;;0.95;0.68;;;8.30;99.90;;;;;;5034956;28;20261;-80
2023/12/27 10:50:54;;;;;;;0.55;0.50;;;8.30;99.90;;;;;;5034793;28;20226;-78
2023/12/27 10:53:21;;;;;;;1.58;1.05;;;8.30;99.90;;;;;;5034575;28;20198;-80
2023/12/27 10:55:49;;;;;;;1.38;1.27;;;8.40;99.90;;;;;;5016229;28;20556;-79
2023/12/27 10:58:22;;;;;;;0.60;0.60;;;8.40;99.90;;;;;;5014808;28;20192;-78
2023/12/27 11:00:49;;;;;;;0.70;0.70;;;8.50;99.90;;;;;;5014515;28;20223;-80
2023/12/27 11:03:17;;;;;;;0.50;0.50;;;8.50;99.90;;;;;;5014717;28;20571;-79
2023/12/27 11:05:45;;;;;;;1.15;1.05;;;8.60;99.90;;;;;;5014347;28;20196;-80
2023/12/27 11:08:14;;;;;;;0.90;0.50;;;8.60;99.90;;;;;;5014230;28;20212;-81
2023/12/27 11:10:44;;;;;;;0.52;0.52;;;8.70;99.90;;;;;;5014255;28;20224;-79
2023/12/27 11:13:12;;;;;;;0.40;0.30;;;8.60;99.90;;;;;;5014386;28;20614;-79
2023/12/27 11:15:44;;;;;;;0.40;0.40;;;8.70;99.90;;;;;;5031502;28;20196;-77
2023/12/27 11:18:11;;;;;;;0.50;0.50;;;8.80;99.90;;;;;;5034309;28;20199;-77
2023/12/27 11:20:40;;;;;;;0.70;0.70;;;8.80;99.90;;;;;;5034019;28;20222;-77
2023/12/27 11:23:08;;;;;;;0.60;0.60;;;8.90;99.90;;;;;;5034376;28;20199;-78
2023/12/27 11:25:35;;;;;;;0.40;0.30;;;8.90;99.90;;;;;;5033738;28;20238;-78
2023/12/27 11:28:03;;;;;;;0.50;0.50;;;8.90;99.90;;;;;;5033811;28;20227;-79
2023/12/27 11:30:30;;;;;;;0.50;0.50;;;9.00;99.90;;;;;;5033059;28;20216;-77
2023/12/27 11:32:59;;;;;;;0.40;0.40;;;9.10;99.90;;;;;;5005611;28;20541;-79
2023/12/27 11:35:28;;;;;;;0.60;0.52;;;9.10;99.90;;;;;;5000834;28;20212;-79
2023/12/27 11:38:13;;;;;;;0.75;0.75;;;9.10;99.90;;;;;;5009724;28;20190;-78
2023/12/27 11:40:40;;;;;;;0.40;0.38;;;9.10;99.90;;;;;;5010089;28;20231;-79
2023/12/27 11:43:08;;;;;;;0.40;0.30;;;9.20;99.90;;;;;;5016270;28;20192;-79
2023/12/27 11:45:58;;;;;;;0.40;0.35;;;9.30;99.90;;;;;;5018114;28;20195;-80
2023/12/27 11:48:27;;;;;;;0.40;0.40;;;9.30;99.90;;;;;;5013678;28;20213;-78
2023/12/27 11:50:55;;;;;;;0.73;0.50;;;9.40;99.90;;;;;;5010219;28;20229;-80
2023/12/27 11:53:24;;;;;;;0.50;0.50;;;9.30;99.90;;;;;;5009989;28;20201;-78
2023/12/27 11:55:52;;;;;;;1.02;0.50;;;9.30;99.90;;;;;;5001153;28;20193;-80
2023/12/27 11:58:33;;;;;;;0.40;0.30;;;9.40;99.90;;;;;;5007113;28;20189;-80
2023/12/27 12:01:25;;;;;;;0.60;0.50;;;9.40;99.90;;;;;;5010475;28;20284;-80
2023/12/27 12:04:09;;;;;;;0.40;0.33;;;9.40;99.90;;;;;;5006058;28;20203;-80
2023/12/27 12:07:01;;;;;;;1.10;0.70;;;9.40;99.90;;;;;;5011672;28;20485;-80
2023/12/27 12:09:32;;;;;;;0.40;0.40;;;9.40;99.90;;;;;;5013579;28;20453;-80
2023/12/27 12:12:09;;;;;;;0.88;0.80;;;9.40;99.90;;;;;;5012958;28;20199;-80
2023/12/27 12:14:36;;;;;;;0.40;0.40;;;9.40;99.90;;;;;;5006885;28;20200;-80
2023/12/27 12:17:04;;;;;;;0.40;0.40;;;9.40;99.90;;;;;;5010713;28;20622;-80
2023/12/27 12:19:32;;;;;;;0.40;0.40;;;9.40;99.90;;;;;;5009660;28;20195;-78
2023/12/27 12:22:01;;;;;;;0.50;0.40;;;9.40;99.90;;;;;;5008884;28;20604;-79
2023/12/27 12:24:28;;;;;;;0.65;0.65;;;9.30;99.90;;;;;;5012199;28;20197;-80
2023/12/27 12:26:56;;;;;;;0.75;0.75;;;9.30;99.90;;;;;;5011064;28;20197;-78
2023/12/27 12:29:24;;;;;;;0.40;0.40;;;9.20;99.90;;;;;;5012618;28;20272;-80
2023/12/27 12:31:51;;;;;;;0.65;0.65;;;9.20;99.90;;;;;;5011232;28;20235;-80
2023/12/27 12:34:18;;;;;;;0.40;0.40;;;9.10;99.90;;;;;;5015485;28;20203;-79
2023/12/27 12:36:46;;;;;;;0.50;0.40;;;9.20;99.90;;;;;;5014830;28;20207;-80
2023/12/27 12:39:16;;;;;;;0.60;0.60;;;9.20;99.90;;;;;;5015635;28;20212;-80
2023/12/27 12:41:42;;;;;;;0.40;0.30;;;9.20;99.90;;;;;;5015679;28;20286;-78
2023/12/27 12:44:09;;;;;;;0.50;0.50;;;9.20;99.90;;;;;;5027189;28;20188;-80
2023/12/27 12:46:37;;;;;;;0.90;0.55;;;9.20;99.90;;;;;;5035415;28;20446;-80
2023/12/27 12:49:05;;;;;;;0.50;0.50;;;9.20;99.90;;;;;;5035198;28;20226;-80
2023/12/27 12:51:32;;;;;;;0.70;0.60;;;9.20;99.90;;;;;;5035314;28;20255;-80
2023/12/27 12:54:01;;;;;;;0.40;0.40;;;9.30;99.90;;;;;;5034224;28;20438;-79
2023/12/27 12:56:28;;;;;;;0.40;0.40;;;9.30;99.90;;;;;;5034324;28;20203;-80
2023/12/27 12:58:54;;;;;;;0.50;0.40;;;9.20;99.90;;;;;;5034879;28;20199;-81